Time;durP1;ratioP1;P1;durP2;ratioP2;P2;SDS_P1;SDS_P2;PMS_P1;PMS_P2;Temp;Humidity;BMP_temperature;BMP_pressure;BME280_temperature;BME280_humidity;BME280_pressure;Samples;Min_cycle;Max_cycle;Signal;HPM_P1;HPM_P2
2023/04/18 00:01:21;;;;;;;22.58;14.20;;;8.70;99.90;;;;;;4744726;30;20636;-78
2023/04/18 00:03:50;;;;;;;21.55;14.60;;;8.70;99.90;;;;;;4778887;30;20307;-77
2023/04/18 00:06:16;;;;;;;23.80;13.98;;;8.70;99.90;;;;;;4784104;29;20595;-79
2023/04/18 00:08:41;;;;;;;26.13;13.13;;;8.70;99.90;;;;;;4772517;30;20246;-78
2023/04/18 00:11:07;;;;;;;20.42;13.48;;;8.70;99.90;;;;;;4790416;29;20237;-80
2023/04/18 00:13:33;;;;;;;18.42;12.40;;;8.70;99.90;;;;;;4773723;30;20201;-77
2023/04/18 00:15:58;;;;;;;19.55;13.00;;;8.70;99.90;;;;;;4786969;29;20654;-78
2023/04/18 00:18:25;;;;;;;24.00;13.18;;;8.70;99.90;;;;;;4787428;29;20289;-77
2023/04/18 00:20:52;;;;;;;20.92;13.77;;;8.70;99.90;;;;;;4774179;30;20591;-77
2023/04/18 00:23:20;;;;;;;21.08;13.65;;;8.70;99.90;;;;;;4779822;30;20201;-78
2023/04/18 00:25:49;;;;;;;21.50;13.18;;;8.70;99.90;;;;;;4774165;29;20189;-78
2023/04/18 00:28:15;;;;;;;22.98;14.40;;;8.60;99.90;;;;;;4788316;30;20185;-78
2023/04/18 00:30:40;;;;;;;20.48;13.35;;;8.60;99.90;;;;;;4757778;30;20957;-78
2023/04/18 00:33:06;;;;;;;23.60;14.10;;;8.60;99.90;;;;;;4773052;30;20315;-78
2023/04/18 00:35:32;;;;;;;22.65;14.95;;;8.60;99.90;;;;;;4745029;30;20284;-80
2023/04/18 00:37:58;;;;;;;22.13;14.80;;;8.60;99.90;;;;;;4779839;29;20201;-77
2023/04/18 00:40:24;;;;;;;21.80;14.65;;;8.50;99.90;;;;;;4766127;30;20208;-78
2023/04/18 00:42:50;;;;;;;23.20;14.07;;;8.50;99.90;;;;;;4773186;30;20199;-78
2023/04/18 00:45:15;;;;;;;19.08;13.30;;;8.40;99.90;;;;;;4790146;30;20189;-78
2023/04/18 00:47:41;;;;;;;25.25;13.20;;;8.40;99.90;;;;;;4771640;30;20200;-77
2023/04/18 00:50:08;;;;;;;19.23;13.05;;;8.40;99.90;;;;;;4789526;30;20200;-85
2023/04/18 00:52:35;;;;;;;17.98;11.95;;;8.40;99.90;;;;;;4772528;30;20643;-78
2023/04/18 00:55:06;;;;;;;21.45;12.52;;;8.30;99.90;;;;;;4772942;30;20630;-78
2023/04/18 00:57:32;;;;;;;16.38;11.40;;;8.30;99.90;;;;;;4758598;30;20290;-77
2023/04/18 01:00:09;;;;;;;20.25;12.65;;;8.30;99.90;;;;;;4772071;30;20216;-79
2023/04/18 01:02:36;;;;;;;21.33;12.35;;;8.30;99.90;;;;;;4779847;29;20194;-77
2023/04/18 01:05:03;;;;;;;19.27;12.32;;;8.30;99.90;;;;;;4764338;30;20197;-77
2023/04/18 01:07:30;;;;;;;20.98;12.80;;;8.30;99.90;;;;;;4757992;30;20253;-77
2023/04/18 01:09:57;;;;;;;19.75;13.07;;;8.20;99.90;;;;;;4773168;30;20256;-77
2023/04/18 01:12:23;;;;;;;19.60;13.32;;;8.20;99.90;;;;;;4769684;30;20234;-77
2023/04/18 01:14:49;;;;;;;21.35;12.57;;;8.10;99.90;;;;;;4763921;30;20224;-77
2023/04/18 01:17:15;;;;;;;22.58;12.55;;;8.20;99.90;;;;;;4773069;30;20219;-78
2023/04/18 01:19:43;;;;;;;27.60;13.07;;;8.20;99.90;;;;;;4786676;29;20220;-78
2023/04/18 01:22:12;;;;;;;22.77;12.02;;;8.20;99.90;;;;;;4771756;30;20207;-77
2023/04/18 01:24:40;;;;;;;20.95;13.45;;;8.20;99.90;;;;;;4771608;30;20189;-77
2023/04/18 01:27:12;;;;;;;18.17;12.35;;;8.10;99.90;;;;;;4772533;30;20208;-78
2023/04/18 01:29:38;;;;;;;18.27;11.75;;;8.10;99.90;;;;;;4785195;29;20243;-79
2023/04/18 01:32:04;;;;;;;20.98;12.55;;;8.10;99.90;;;;;;4777086;29;20209;-78
2023/04/18 01:34:30;;;;;;;23.05;12.25;;;8.10;99.90;;;;;;4772009;30;20285;-78
2023/04/18 01:36:56;;;;;;;17.00;12.05;;;8.00;99.90;;;;;;4772444;30;20680;-80
2023/04/18 01:39:22;;;;;;;20.92;12.52;;;8.00;99.90;;;;;;4760759;30;20188;-82
2023/04/18 01:41:48;;;;;;;19.42;12.00;;;8.00;99.90;;;;;;4773126;30;20217;-78
2023/04/18 01:44:15;;;;;;;18.70;11.98;;;8.00;99.90;;;;;;4780235;30;20203;-78
2023/04/18 01:46:41;;;;;;;18.15;11.65;;;8.00;99.90;;;;;;4788875;29;20189;-84
2023/04/18 01:49:08;;;;;;;20.38;11.70;;;8.00;99.90;;;;;;4769175;30;20315;-84
2023/04/18 01:51:34;;;;;;;19.30;11.38;;;8.00;99.90;;;;;;4772845;30;20196;-78
2023/04/18 01:54:00;;;;;;;17.75;11.85;;;7.90;99.90;;;;;;4772076;30;20188;-77
2023/04/18 01:56:25;;;;;;;15.50;11.32;;;7.90;99.90;;;;;;4772602;30;20200;-77
2023/04/18 01:58:51;;;;;;;17.00;11.25;;;7.90;99.90;;;;;;4762995;29;20192;-78
2023/04/18 02:01:17;;;;;;;17.95;10.88;;;7.90;99.90;;;;;;4769072;30;20225;-78
2023/04/18 02:03:43;;;;;;;16.50;11.13;;;7.90;99.90;;;;;;4772092;30;20620;-77
2023/04/18 02:06:08;;;;;;;17.90;10.27;;;7.90;99.90;;;;;;4755973;30;20201;-76
2023/04/18 02:08:34;;;;;;;16.45;10.60;;;7.90;99.90;;;;;;4770283;30;20230;-76
2023/04/18 02:11:03;;;;;;;14.32;9.90;;;7.90;99.90;;;;;;4788750;30;20293;-76
2023/04/18 02:13:29;;;;;;;20.40;10.75;;;7.90;99.90;;;;;;4756393;30;20196;-76
2023/04/18 02:15:56;;;;;;;19.20;10.40;;;7.90;99.90;;;;;;4771947;30;20689;-79
2023/04/18 02:18:23;;;;;;;15.15;10.10;;;7.90;99.90;;;;;;4757264;30;20283;-76
2023/04/18 02:20:50;;;;;;;16.00;9.63;;;7.90;99.90;;;;;;4787519;30;20239;-76
2023/04/18 02:23:17;;;;;;;16.15;9.70;;;7.90;99.90;;;;;;4754287;29;20208;-76
2023/04/18 02:25:43;;;;;;;16.23;9.88;;;7.90;99.90;;;;;;4760359;30;20190;-77
2023/04/18 02:28:08;;;;;;;16.58;9.73;;;8.00;99.90;;;;;;4761903;30;20253;-78
2023/04/18 02:30:34;;;;;;;14.27;10.07;;;8.00;99.90;;;;;;4788390;30;20224;-76
2023/04/18 02:33:01;;;;;;;14.88;9.43;;;8.00;99.90;;;;;;4787057;29;20199;-81
2023/04/18 02:35:28;;;;;;;13.27;8.98;;;8.00;99.90;;;;;;4769236;30;20197;-77
2023/04/18 02:37:53;;;;;;;12.25;8.75;;;8.00;99.90;;;;;;4766019;30;20189;-77
2023/04/18 02:40:19;;;;;;;12.70;8.43;;;8.10;99.90;;;;;;4754254;30;20229;-77
2023/04/18 02:42:45;;;;;;;13.63;8.55;;;8.10;99.90;;;;;;4775682;30;20197;-76
2023/04/18 02:45:13;;;;;;;12.60;9.13;;;8.10;99.90;;;;;;4785848;29;20194;-77
2023/04/18 02:47:40;;;;;;;13.43;9.43;;;8.10;99.90;;;;;;4782513;29;20684;-77
2023/04/18 02:50:07;;;;;;;14.63;8.93;;;8.10;99.90;;;;;;4772091;30;20192;-78
2023/04/18 02:52:34;;;;;;;13.85;8.77;;;8.10;99.90;;;;;;4771608;30;20193;-77
2023/04/18 02:55:00;;;;;;;12.05;8.85;;;8.10;99.90;;;;;;4787821;30;20199;-76
2023/04/18 02:57:31;;;;;;;13.10;8.73;;;8.20;99.90;;;;;;4771900;30;20670;-77
2023/04/18 03:00:17;;;;;;;13.48;8.55;;;8.10;99.90;;;;;;4786970;30;20252;-77
2023/04/18 03:03:01;;;;;;;12.57;8.32;;;8.10;99.90;;;;;;4761953;30;20203;-77
2023/04/18 03:05:52;;;;;;;15.18;8.90;;;8.20;99.90;;;;;;4782008;30;20612;-77
2023/04/18 03:08:18;;;;;;;14.60;8.68;;;8.10;99.90;;;;;;4757302;30;20676;-77
2023/04/18 03:10:44;;;;;;;13.10;8.85;;;8.20;99.90;;;;;;4787333;29;20236;-77
2023/04/18 03:13:10;;;;;;;13.77;8.90;;;8.10;99.90;;;;;;4771099;30;20197;-77
2023/04/18 03:15:37;;;;;;;13.27;9.30;;;8.20;99.90;;;;;;4766692;29;20219;-77
2023/04/18 03:18:04;;;;;;;12.35;8.95;;;8.10;99.90;;;;;;4755788;30;20193;-77
2023/04/18 03:20:33;;;;;;;15.43;8.38;;;8.10;99.90;;;;;;4742870;30;20228;-78
2023/04/18 03:22:59;;;;;;;13.27;9.30;;;8.20;99.90;;;;;;4750716;30;20226;-77
2023/04/18 03:25:28;;;;;;;13.23;8.73;;;8.20;99.90;;;;;;4775570;30;20203;-82
2023/04/18 03:27:55;;;;;;;13.55;8.55;;;8.20;99.90;;;;;;4773911;30;20672;-76
2023/04/18 03:30:22;;;;;;;14.25;9.05;;;8.20;99.90;;;;;;4775505;30;20669;-76
2023/04/18 03:32:52;;;;;;;12.13;9.10;;;8.20;99.90;;;;;;4791168;30;20193;-76
2023/04/18 03:35:18;;;;;;;14.18;8.77;;;8.20;99.90;;;;;;4750653;30;20256;-76
2023/04/18 03:37:44;;;;;;;13.52;8.95;;;8.10;99.90;;;;;;4758270;30;20642;-76
2023/04/18 03:40:13;;;;;;;13.57;9.15;;;8.20;99.90;;;;;;4767611;30;20244;-76
2023/04/18 03:42:40;;;;;;;13.75;8.82;;;8.20;99.90;;;;;;4766282;30;20204;-78
2023/04/18 03:45:06;;;;;;;15.35;9.15;;;8.20;99.90;;;;;;4760211;30;20192;-76
2023/04/18 03:47:34;;;;;;;16.73;8.60;;;8.10;99.90;;;;;;4770048;29;20207;-77
2023/04/18 03:50:00;;;;;;;13.90;8.63;;;8.10;99.90;;;;;;4773463;30;20204;-77
2023/04/18 03:52:26;;;;;;;13.23;9.07;;;8.10;99.90;;;;;;4757075;30;20194;-77
2023/04/18 03:54:51;;;;;;;13.65;9.02;;;8.10;99.90;;;;;;4746664;30;20504;-76
2023/04/18 03:57:22;;;;;;;12.73;9.23;;;8.10;99.90;;;;;;4759613;30;20283;-77
2023/04/18 03:59:50;;;;;;;12.98;9.30;;;8.10;99.90;;;;;;4754855;30;20256;-76
2023/04/18 04:02:15;;;;;;;13.95;8.95;;;8.10;99.90;;;;;;4757479;30;20250;-78
2023/04/18 04:04:41;;;;;;;16.23;9.25;;;8.10;99.90;;;;;;4773238;30;20194;-76
2023/04/18 04:07:09;;;;;;;13.82;8.55;;;8.10;99.90;;;;;;4774453;30;20288;-77
2023/04/18 04:09:35;;;;;;;13.57;9.75;;;8.20;99.90;;;;;;4768607;30;20682;-80
2023/04/18 04:12:01;;;;;;;13.23;9.18;;;8.10;99.90;;;;;;4772788;30;20231;-77
2023/04/18 04:14:28;;;;;;;14.45;9.32;;;8.20;99.90;;;;;;4770099;30;20198;-78
2023/04/18 04:16:54;;;;;;;16.27;9.73;;;8.10;99.90;;;;;;4774510;30;20193;-83
2023/04/18 04:19:20;;;;;;;14.63;9.57;;;8.10;99.90;;;;;;4754679;29;20201;-79
2023/04/18 04:22:03;;;;;;;13.38;9.15;;;8.10;99.90;;;;;;4775875;29;20199;-77
2023/04/18 04:24:31;;;;;;;13.88;9.18;;;8.20;99.90;;;;;;4756236;30;20270;-79
2023/04/18 04:26:58;;;;;;;14.15;9.75;;;8.20;99.90;;;;;;4786719;30;20204;-82
2023/04/18 04:29:25;;;;;;;13.50;9.55;;;8.10;99.90;;;;;;4770508;30;20706;-78
2023/04/18 04:31:52;;;;;;;14.98;9.73;;;8.20;99.90;;;;;;4780912;29;20219;-78
2023/04/18 04:34:28;;;;;;;15.23;10.38;;;8.20;99.90;;;;;;4766783;30;20196;-78
2023/04/18 04:36:54;;;;;;;14.75;9.88;;;8.20;99.90;;;;;;4773467;30;20201;-83
2023/04/18 04:39:21;;;;;;;17.67;9.95;;;8.20;99.90;;;;;;4773785;30;20250;-78
2023/04/18 04:42:06;;;;;;;15.77;10.32;;;8.20;99.90;;;;;;4773937;29;20729;-79
2023/04/18 04:44:41;;;;;;;13.73;9.50;;;8.20;99.90;;;;;;4753693;30;20279;-77
2023/04/18 04:47:07;;;;;;;17.33;10.13;;;8.20;99.90;;;;;;4763324;30;20193;-77
2023/04/18 04:49:35;;;;;;;18.00;10.65;;;8.30;99.90;;;;;;4759423;30;20280;-77
2023/04/18 04:52:03;;;;;;;15.30;10.65;;;8.30;99.90;;;;;;4773355;30;20275;-77
2023/04/18 04:54:29;;;;;;;16.95;10.50;;;8.20;99.90;;;;;;4745467;30;20246;-78
2023/04/18 04:56:55;;;;;;;15.65;9.68;;;8.20;99.90;;;;;;4771875;30;20188;-82
2023/04/18 04:59:21;;;;;;;15.05;10.48;;;8.20;99.90;;;;;;4755872;30;20200;-77
2023/04/18 05:01:48;;;;;;;17.13;10.23;;;8.20;99.90;;;;;;4763728;30;20312;-78
2023/04/18 05:04:14;;;;;;;18.10;10.68;;;8.20;99.90;;;;;;4756747;30;20193;-78
2023/04/18 05:06:39;;;;;;;18.05;10.35;;;8.30;99.90;;;;;;4787606;29;20188;-78
2023/04/18 05:09:05;;;;;;;20.98;11.02;;;8.30;99.90;;;;;;4773490;30;20193;-79
2023/04/18 05:11:31;;;;;;;16.52;11.02;;;8.30;99.90;;;;;;4773577;30;20696;-78
2023/04/18 05:13:57;;;;;;;15.23;10.65;;;8.30;99.90;;;;;;4775360;29;20714;-79
2023/04/18 05:16:22;;;;;;;21.17;11.63;;;8.30;99.90;;;;;;4789212;30;20192;-79
2023/04/18 05:18:48;;;;;;;17.70;11.93;;;8.30;99.90;;;;;;4767731;29;20199;-78
2023/04/18 05:21:14;;;;;;;17.15;11.02;;;8.30;99.90;;;;;;4773596;30;20244;-78
2023/04/18 05:23:40;;;;;;;16.13;10.98;;;8.40;99.90;;;;;;4789243;30;20279;-78
2023/04/18 05:26:06;;;;;;;17.83;11.77;;;8.30;99.90;;;;;;4788893;30;20188;-78
2023/04/18 05:28:31;;;;;;;19.42;12.15;;;8.30;99.90;;;;;;4754636;30;20553;-79
2023/04/18 05:31:00;;;;;;;18.27;11.73;;;8.40;99.90;;;;;;4776195;29;20256;-78
2023/04/18 05:33:32;;;;;;;16.30;11.55;;;8.40;99.90;;;;;;4787785;30;20287;-78
2023/04/18 05:35:58;;;;;;;21.20;12.52;;;8.40;99.90;;;;;;4772856;30;20193;-78
2023/04/18 05:38:24;;;;;;;17.60;12.13;;;8.40;99.90;;;;;;4788351;29;20192;-78
2023/04/18 05:40:50;;;;;;;21.55;11.80;;;8.40;99.90;;;;;;4782906;29;20224;-79
2023/04/18 05:43:18;;;;;;;17.17;12.15;;;8.50;99.90;;;;;;4788947;29;20196;-77
2023/04/18 05:45:44;;;;;;;16.52;11.50;;;8.50;99.90;;;;;;4789176;30;20197;-78
2023/04/18 05:48:10;;;;;;;19.05;12.20;;;8.50;99.90;;;;;;4789323;30;20189;-79
2023/04/18 05:50:36;;;;;;;17.77;11.90;;;8.60;99.90;;;;;;4774104;29;20192;-78
2023/04/18 05:53:02;;;;;;;21.00;12.60;;;8.60;99.90;;;;;;4796693;29;20551;-78
2023/04/18 05:55:27;;;;;;;19.52;11.43;;;8.60;99.90;;;;;;4771970;29;20229;-79
2023/04/18 05:57:53;;;;;;;20.05;11.73;;;8.70;99.90;;;;;;4773485;30;20199;-79
2023/04/18 06:00:19;;;;;;;17.50;12.40;;;8.80;99.90;;;;;;4772902;30;20682;-81
2023/04/18 06:02:45;;;;;;;18.45;11.98;;;8.90;99.90;;;;;;4772764;30;20220;-79
2023/04/18 06:05:11;;;;;;;18.33;11.60;;;9.00;99.90;;;;;;4789568;29;20188;-80
2023/04/18 06:07:37;;;;;;;18.33;11.50;;;9.10;99.90;;;;;;4771840;30;20193;-78
2023/04/18 06:10:07;;;;;;;15.35;10.68;;;9.10;99.90;;;;;;4788623;30;20231;-78
2023/04/18 06:12:34;;;;;;;16.48;11.13;;;9.30;99.90;;;;;;4788698;30;20261;-79
2023/04/18 06:14:59;;;;;;;18.83;10.70;;;9.30;99.90;;;;;;4772268;30;20189;-79
2023/04/18 06:17:25;;;;;;;17.33;10.70;;;9.40;99.90;;;;;;4756830;30;20261;-80
2023/04/18 06:19:51;;;;;;;17.67;10.70;;;9.50;99.90;;;;;;4768492;30;20194;-79
2023/04/18 06:22:17;;;;;;;20.13;11.00;;;9.50;99.90;;;;;;4769237;29;20194;-79
2023/04/18 06:24:42;;;;;;;17.08;11.15;;;9.60;99.90;;;;;;4772402;30;20205;-79
2023/04/18 06:27:08;;;;;;;19.95;10.40;;;9.60;99.90;;;;;;4757347;30;20197;-79
2023/04/18 06:29:34;;;;;;;19.98;11.13;;;10.10;99.90;;;;;;4772064;30;20607;-79
2023/04/18 06:31:59;;;;;;;15.85;10.40;;;10.60;99.90;;;;;;4771665;30;20224;-78
2023/04/18 06:34:25;;;;;;;22.25;10.48;;;10.70;99.90;;;;;;4771864;30;20192;-79
2023/04/18 06:36:51;;;;;;;15.80;9.77;;;10.70;99.90;;;;;;4756993;30;20740;-81
2023/04/18 06:39:17;;;;;;;17.88;10.60;;;10.60;99.90;;;;;;4771791;30;20676;-79
2023/04/18 06:41:43;;;;;;;19.83;10.70;;;10.50;99.90;;;;;;4786359;29;20301;-79
2023/04/18 06:44:09;;;;;;;16.35;10.13;;;10.40;99.90;;;;;;4771898;30;20250;-78
2023/04/18 06:46:34;;;;;;;16.50;10.48;;;10.40;99.90;;;;;;4771627;30;20197;-79
2023/04/18 06:49:00;;;;;;;16.63;10.52;;;10.40;99.90;;;;;;4772162;30;20299;-78
2023/04/18 06:51:26;;;;;;;17.00;10.15;;;10.40;99.90;;;;;;4771962;30;20305;-80
2023/04/18 06:53:52;;;;;;;16.10;10.25;;;10.40;99.90;;;;;;4794987;30;20513;-78
2023/04/18 06:56:19;;;;;;;17.35;10.70;;;10.40;99.90;;;;;;4777076;30;20237;-79
2023/04/18 06:58:45;;;;;;;18.77;10.35;;;10.30;99.90;;;;;;4768515;30;20200;-78
2023/04/18 07:01:11;;;;;;;16.58;10.07;;;10.30;99.90;;;;;;4781619;29;20355;-79
2023/04/18 07:03:37;;;;;;;13.55;9.65;;;10.40;99.90;;;;;;4786706;29;20279;-79
2023/04/18 07:06:04;;;;;;;14.23;9.68;;;10.50;99.90;;;;;;4781343;29;20197;-79
2023/04/18 07:08:30;;;;;;;17.17;10.55;;;10.60;99.90;;;;;;4769732;29;20199;-84
2023/04/18 07:10:56;;;;;;;14.60;9.63;;;10.70;99.90;;;;;;4766462;30;20236;-81
2023/04/18 07:13:21;;;;;;;17.00;10.20;;;10.80;99.90;;;;;;4786284;29;20693;-80
2023/04/18 07:15:47;;;;;;;18.17;9.93;;;10.90;99.90;;;;;;4779460;29;20248;-79
2023/04/18 07:18:13;;;;;;;16.52;10.98;;;11.00;99.90;;;;;;4780835;29;20235;-79
2023/04/18 07:20:39;;;;;;;17.45;10.20;;;11.20;99.90;;;;;;4772281;30;20224;-78
2023/04/18 07:23:05;;;;;;;19.02;10.40;;;11.30;99.90;;;;;;4782642;29;20224;-79
2023/04/18 07:25:31;;;;;;;16.20;10.23;;;11.70;99.90;;;;;;4780251;29;20259;-81
2023/04/18 07:27:57;;;;;;;14.32;10.23;;;12.80;99.90;;;;;;4782514;29;20193;-83
2023/04/18 07:30:23;;;;;;;17.13;10.60;;;13.90;98.20;;;;;;4782401;29;20230;-81
2023/04/18 07:32:49;;;;;;;18.42;10.93;;;14.30;96.20;;;;;;4779864;29;20681;-80
2023/04/18 07:35:14;;;;;;;18.90;10.40;;;14.20;95.70;;;;;;4783810;29;20295;-78
2023/04/18 07:37:40;;;;;;;16.55;10.70;;;14.20;96.00;;;;;;4783056;29;20201;-82
2023/04/18 07:40:07;;;;;;;20.13;10.98;;;14.30;95.80;;;;;;4787725;30;20228;-79
2023/04/18 07:42:33;;;;;;;18.95;10.80;;;14.30;95.60;;;;;;4771982;30;20184;-79
2023/04/18 07:44:58;;;;;;;16.98;10.35;;;14.30;95.40;;;;;;4771599;30;20708;-79
2023/04/18 07:47:26;;;;;;;20.13;10.88;;;14.40;95.40;;;;;;4783743;29;20649;-79
2023/04/18 07:49:52;;;;;;;14.98;10.23;;;14.50;95.50;;;;;;4761008;30;20205;-83
2023/04/18 07:52:18;;;;;;;15.75;9.98;;;15.30;95.20;;;;;;4782424;29;20197;-80
2023/04/18 07:54:44;;;;;;;19.65;13.82;;;16.70;92.50;;;;;;4787332;30;20617;-80
2023/04/18 07:57:10;;;;;;;15.80;11.45;;;18.20;88.90;;;;;;4786606;30;20200;-80
2023/04/18 07:59:36;;;;;;;19.73;10.20;;;19.60;81.00;;;;;;4753118;30;20243;-79
2023/04/18 08:02:01;;;;;;;16.70;9.88;;;20.80;72.50;;;;;;4769300;30;20225;-80
2023/04/18 08:04:27;;;;;;;15.90;9.88;;;21.80;66.40;;;;;;4769415;30;20684;-81
2023/04/18 08:06:53;;;;;;;15.18;9.15;;;22.60;59.60;;;;;;4755047;30;20200;-80
2023/04/18 08:09:20;;;;;;;13.68;9.45;;;23.00;55.20;;;;;;4783868;29;20196;-80
2023/04/18 08:11:46;;;;;;;13.73;9.77;;;23.20;52.70;;;;;;4768514;30;20251;-84
2023/04/18 08:14:12;;;;;;;17.02;9.90;;;23.40;50.70;;;;;;4790298;30;20189;-79
2023/04/18 08:16:38;;;;;;;14.13;9.38;;;23.60;49.30;;;;;;4789558;30;20620;-80
2023/04/18 08:19:04;;;;;;;18.08;9.45;;;23.70;48.20;;;;;;4747390;29;20235;-80
2023/04/18 08:21:31;;;;;;;16.30;9.32;;;23.50;47.80;;;;;;4786368;29;20327;-81
2023/04/18 08:23:57;;;;;;;16.25;9.80;;;22.90;48.10;;;;;;4777948;30;20192;-81
2023/04/18 08:26:23;;;;;;;15.40;9.57;;;21.80;48.80;;;;;;4758288;30;20192;-80
2023/04/18 08:28:49;;;;;;;15.27;10.55;;;20.80;51.20;;;;;;4769164;30;20532;-80
2023/04/18 08:31:15;;;;;;;13.93;9.52;;;19.80;52.60;;;;;;4786483;29;20208;-80
2023/04/18 08:33:41;;;;;;;16.08;9.60;;;18.80;54.50;;;;;;4768744;30;20197;-81
2023/04/18 08:36:08;;;;;;;13.93;9.55;;;18.10;56.50;;;;;;4784810;29;20194;-84
2023/04/18 08:38:33;;;;;;;15.18;10.07;;;17.60;58.20;;;;;;4774368;30;20196;-83
2023/04/18 08:40:59;;;;;;;14.60;9.73;;;17.30;60.10;;;;;;4759459;30;20580;-81
2023/04/18 08:43:25;;;;;;;15.52;9.23;;;17.10;61.60;;;;;;4790010;29;20196;-79
2023/04/18 08:45:58;;;;;;;17.10;9.32;;;16.90;62.60;;;;;;4773771;30;20703;-80
2023/04/18 08:48:23;;;;;;;18.17;9.48;;;16.60;61.50;;;;;;4772851;30;20218;-79
2023/04/18 08:50:55;;;;;;;16.45;10.07;;;16.30;62.50;;;;;;4788630;30;20422;-80
2023/04/18 08:53:21;;;;;;;18.13;9.52;;;16.10;63.60;;;;;;4783555;30;20185;-82
2023/04/18 08:55:52;;;;;;;14.80;9.57;;;16.00;63.50;;;;;;4765777;29;20272;-78
2023/04/18 08:58:21;;;;;;;20.23;10.00;;;15.80;61.70;;;;;;4783044;29;20205;-78
2023/04/18 09:00:51;;;;;;;16.88;9.18;;;15.50;62.20;;;;;;4744018;30;20252;-79
2023/04/18 09:03:38;;;;;;;15.25;8.68;;;15.20;63.50;;;;;;4773156;30;20196;-79
2023/04/18 09:06:11;;;;;;;16.02;9.57;;;15.00;64.00;;;;;;4789701;30;20650;-79
2023/04/18 09:08:37;;;;;;;15.75;9.25;;;14.80;65.20;;;;;;4780525;29;20213;-81
2023/04/18 09:11:21;;;;;;;17.70;9.80;;;14.70;67.20;;;;;;4765018;30;20246;-79
2023/04/18 09:13:49;;;;;;;17.40;9.38;;;14.70;68.70;;;;;;4788079;30;20266;-78
2023/04/18 09:16:15;;;;;;;21.23;10.25;;;14.80;69.10;;;;;;4771845;30;20726;-80
2023/04/18 09:19:11;;;;;;;20.45;9.70;;;14.90;69.70;;;;;;4783455;29;20197;-85
2023/04/18 09:21:43;;;;;;;15.38;9.50;;;15.00;68.80;;;;;;4768832;30;20217;-81
2023/04/18 09:24:19;;;;;;;16.80;9.35;;;14.90;69.40;;;;;;4789262;30;20204;-78
2023/04/18 09:26:48;;;;;;;16.63;9.90;;;14.80;70.10;;;;;;4784550;30;20188;-80
2023/04/18 09:29:17;;;;;;;18.27;9.05;;;14.70;71.10;;;;;;4787182;30;20197;-79
2023/04/18 09:32:22;;;;;;;16.52;9.32;;;14.60;71.70;;;;;;4784229;30;20204;-79
2023/04/18 09:34:48;;;;;;;16.27;9.35;;;14.70;73.20;;;;;;4758996;30;20279;-78
2023/04/18 09:37:14;;;;;;;11.93;8.57;;;14.80;72.90;;;;;;4756059;30;20193;-77
2023/04/18 09:39:42;;;;;;;19.15;9.07;;;14.80;73.00;;;;;;4767860;30;20204;-79
2023/04/18 09:42:09;;;;;;;14.77;8.85;;;14.80;73.50;;;;;;4779947;30;20201;-78
2023/04/18 09:44:36;;;;;;;13.60;9.35;;;14.80;74.70;;;;;;4788258;30;20195;-77
2023/04/18 09:47:02;;;;;;;14.23;8.95;;;14.80;74.90;;;;;;4773089;30;20238;-76
2023/04/18 09:49:28;;;;;;;11.65;8.82;;;14.90;74.60;;;;;;4759275;30;20189;-80
2023/04/18 09:51:54;;;;;;;13.32;8.57;;;15.00;75.30;;;;;;4766393;30;20680;-80
2023/04/18 09:54:23;;;;;;;13.77;8.43;;;15.10;74.80;;;;;;4785115;30;20208;-81
2023/04/18 09:56:52;;;;;;;16.92;9.18;;;15.10;75.40;;;;;;4778981;29;20187;-78
2023/04/18 09:59:50;;;;;;;12.48;8.43;;;15.20;76.00;;;;;;4773500;30;20224;-79
2023/04/18 10:02:21;;;;;;;10.60;8.23;;;15.10;76.20;;;;;;4787648;30;20270;-79
2023/04/18 10:04:49;;;;;;;10.27;7.60;;;15.20;78.00;;;;;;4757573;30;20185;-79
2023/04/18 10:07:16;;;;;;;10.68;7.22;;;15.40;78.20;;;;;;4788506;30;20673;-80
2023/04/18 10:09:45;;;;;;;10.85;7.30;;;15.70;77.60;;;;;;4758105;30;20196;-79
2023/04/18 10:12:11;;;;;;;11.18;7.47;;;15.80;76.00;;;;;;4749993;30;20240;-80
2023/04/18 10:14:41;;;;;;;13.35;6.78;;;15.80;76.20;;;;;;4756210;30;20198;-80
2023/04/18 10:17:13;;;;;;;9.73;6.90;;;15.90;76.10;;;;;;4753976;30;20192;-80
2023/04/18 10:19:43;;;;;;;9.50;6.43;;;16.00;75.80;;;;;;4767513;30;20651;-80
2023/04/18 10:22:10;;;;;;;15.32;7.15;;;16.00;75.50;;;;;;4724607;30;20213;-85
2023/04/18 10:24:52;;;;;;;12.32;7.03;;;16.00;75.40;;;;;;4764773;30;20200;-80
2023/04/18 10:27:46;;;;;;;11.80;7.03;;;15.90;76.10;;;;;;4753841;30;21038;-80
2023/04/18 10:30:15;;;;;;;10.38;7.07;;;15.90;76.00;;;;;;4749177;30;20255;-79
2023/04/18 10:32:41;;;;;;;11.13;6.57;;;15.90;76.70;;;;;;4766262;30;20197;-80
2023/04/18 10:35:09;;;;;;;9.35;6.60;;;16.00;77.20;;;;;;4770391;30;20192;-80
2023/04/18 10:37:51;;;;;;;10.88;6.93;;;16.00;76.50;;;;;;4735571;30;20650;-79
2023/04/18 10:40:34;;;;;;;9.13;6.20;;;15.90;76.90;;;;;;4755047;30;20221;-79
2023/04/18 10:42:59;;;;;;;8.82;6.75;;;15.70;76.90;;;;;;4756400;30;20189;-81
2023/04/18 10:45:27;;;;;;;10.05;6.55;;;15.70;77.80;;;;;;4745509;30;20247;-83
2023/04/18 10:48:28;;;;;;;10.68;6.90;;;15.50;77.90;;;;;;4752810;30;20200;-79
2023/04/18 10:51:11;;;;;;;9.23;6.57;;;15.50;78.40;;;;;;4765492;30;20205;-80
2023/04/18 10:53:37;;;;;;;9.52;6.97;;;15.60;78.60;;;;;;4757761;30;20315;-80
2023/04/18 10:56:06;;;;;;;12.43;6.72;;;15.70;78.40;;;;;;4749429;30;20280;-80
2023/04/18 10:58:33;;;;;;;16.30;7.53;;;15.70;78.40;;;;;;4769734;30;20276;-80
2023/04/18 11:01:00;;;;;;;12.13;6.82;;;15.60;79.10;;;;;;4770052;30;20316;-80
2023/04/18 11:03:33;;;;;;;12.27;6.95;;;15.70;80.30;;;;;;4753289;30;20232;-82
2023/04/18 11:06:02;;;;;;;10.35;7.30;;;15.80;80.30;;;;;;4756737;30;20198;-79
2023/04/18 11:08:28;;;;;;;11.55;7.50;;;16.00;80.30;;;;;;4752568;30;20190;-79
2023/04/18 11:10:58;;;;;;;10.52;6.72;;;16.10;79.60;;;;;;4773486;30;20306;-78
2023/04/18 11:13:24;;;;;;;9.38;6.38;;;16.20;79.40;;;;;;4753826;30;20270;-78
2023/04/18 11:15:50;;;;;;;9.23;6.90;;;16.20;80.00;;;;;;4784222;30;20682;-80
2023/04/18 11:18:16;;;;;;;10.40;6.80;;;16.40;79.70;;;;;;4782629;29;20226;-81
2023/04/18 11:20:49;;;;;;;9.43;6.82;;;16.50;78.20;;;;;;4761857;30;20221;-81
2023/04/18 11:23:19;;;;;;;9.18;7.15;;;16.50;78.90;;;;;;4783808;30;20502;-79
2023/04/18 11:25:45;;;;;;;10.50;6.85;;;16.50;77.30;;;;;;4769678;30;20185;-80
2023/04/18 11:28:15;;;;;;;10.23;6.65;;;16.40;77.90;;;;;;4762928;29;20223;-79
2023/04/18 11:30:41;;;;;;;9.60;7.28;;;16.50;78.50;;;;;;4775981;29;20284;-80
2023/04/18 11:33:10;;;;;;;10.00;6.72;;;16.60;78.00;;;;;;4778379;30;20275;-79
2023/04/18 11:35:45;;;;;;;9.13;5.90;;;16.50;78.30;;;;;;4772142;30;20197;-81
2023/04/18 11:38:15;;;;;;;7.72;5.05;;;16.60;78.30;;;;;;4758690;30;20216;-81
2023/04/18 11:40:48;;;;;;;6.57;5.28;;;16.60;77.30;;;;;;4778746;29;20228;-80
2023/04/18 11:43:23;;;;;;;9.52;5.65;;;16.70;77.10;;;;;;4782050;30;20220;-79
2023/04/18 11:45:56;;;;;;;9.18;5.50;;;16.60;76.60;;;;;;4775102;30;20226;-79
2023/04/18 11:48:22;;;;;;;9.27;5.95;;;16.60;77.40;;;;;;4788706;29;20192;-79
2023/04/18 11:50:48;;;;;;;11.20;5.93;;;16.60;78.80;;;;;;4789969;30;20215;-78
2023/04/18 11:53:14;;;;;;;10.55;5.72;;;16.50;78.60;;;;;;4775624;30;20240;-79
2023/04/18 11:55:40;;;;;;;8.73;5.13;;;16.40;78.20;;;;;;4787182;29;20219;-80
2023/04/18 11:58:05;;;;;;;8.05;4.93;;;16.40;77.90;;;;;;4772276;30;20197;-80
2023/04/18 12:00:40;;;;;;;7.40;5.13;;;16.30;78.10;;;;;;4773841;30;20657;-80
2023/04/18 12:03:14;;;;;;;7.88;5.03;;;16.20;77.60;;;;;;4790218;30;20196;-80
2023/04/18 12:05:41;;;;;;;7.78;5.07;;;16.10;78.00;;;;;;4781666;30;20196;-80
2023/04/18 12:08:12;;;;;;;7.75;5.10;;;16.00;78.70;;;;;;4778842;29;20186;-89
2023/04/18 12:10:49;;;;;;;8.65;5.20;;;16.00;79.40;;;;;;4772229;30;20266;-78
2023/04/18 12:13:15;;;;;;;5.68;4.60;;;16.10;79.80;;;;;;4759855;30;20196;-80
2023/04/18 12:15:43;;;;;;;5.88;3.97;;;16.20;79.70;;;;;;4790941;30;20216;-79
2023/04/18 12:18:10;;;;;;;10.88;4.40;;;16.30;79.10;;;;;;4771008;30;21056;-79
2023/04/18 12:20:39;;;;;;;7.60;4.20;;;16.50;78.80;;;;;;4785934;29;20216;-79
2023/04/18 12:23:05;;;;;;;5.00;3.90;;;16.50;78.50;;;;;;4785889;29;20184;-79
2023/04/18 12:25:32;;;;;;;4.78;3.97;;;16.50;77.90;;;;;;4791179;30;20227;-79
2023/04/18 12:28:02;;;;;;;4.85;3.92;;;16.60;77.70;;;;;;4768046;30;20247;-79
2023/04/18 12:30:30;;;;;;;6.30;3.70;;;16.60;77.60;;;;;;4758940;30;20560;-81
2023/04/18 12:33:03;;;;;;;6.47;4.70;;;16.60;77.70;;;;;;4789719;30;20275;-78
2023/04/18 12:35:30;;;;;;;7.80;5.65;;;16.60;77.90;;;;;;4770235;30;20200;-80
2023/04/18 12:37:59;;;;;;;6.07;4.80;;;16.70;78.00;;;;;;4773416;29;20197;-83
2023/04/18 12:40:25;;;;;;;7.13;4.75;;;16.70;77.20;;;;;;4773857;29;20254;-86
2023/04/18 12:42:53;;;;;;;5.93;4.13;;;16.70;77.60;;;;;;4775159;29;20189;-77